Aérodrome :
LOGIN :

S'inscrire | Disclaimer

   EN    FR    IT 

 










Légende :    VFR   VFR Marginal   IFR   IFR Intensif   IFR Très Intensif
Visi : 
Plafond : 
>= 8 km
>= 3000ft
5 à 8 km
1000 à 3000 ft
1500m à 5 km
500 à 1000 ft
800 à 1500m
200 à 500 ft
< 800m
< 200 ft
Symboles :   Orages  Brouillard  Fortes neiges  Fortes précipitations  Vent > 20 kt
SIGMETs :   Divers  Orages  Givrage  Turbulence  Onde Orograph.  Cendres Volcan.






- Altitude de l'aérodrome : 160 ft
- Code IATA : FMO


EDDG - Münster Osnabrück Int.

DERNIER METAR :
  • 301920Z 18008KT 150V210 3000 -RA BR BKN006 02/02 Q1015 TEMPO RA

METARs EXPIRÉS :
  • 301850Z 18007KT 2700 -RA BR BKN006 02/01 Q1016 TEMPO RA
  • 301820Z 18005KT 140V220 2700 -RA BR BKN006 01/01 Q1016 TEMPO RA
  • 301750Z 18005KT 150V210 2700 -RA BR BKN006 01/00 Q1017 TEMPO RA
  • 301720Z 18006KT 140V200 2700 -RA BR BKN005 01/M00 Q1018 TEMPO RA BKN003
  • 301650Z 18006KT 150V210 3000 -RA BR BKN006 01/M00 Q1018 TEMPO 2500 BKN003

TAF TAF EDDG
Valide du 30 à 18h jusqu'au 01 à 18h UTC


301700Z 3018/0118 19009KT 4000 -RA BR BKN006
TEMPO 3018/3024 2000 RADZ BKN003
TEMPO 0100/0110 1400 DZRA BR BKN003
BECMG 0101/0104 25004KT
BECMG 0107/0110 6000
PROB30
TEMPO 0110/0116 2500 SHRA BR BKN004 BKN020TCU
TEMPO 0111/0118 01006KT
BECMG 0116/0118 4000 BR



MET'MAP, la Météo Aéronautique d'un coup d'oeil ! - Copyright ORBIFLY Décembre 2007 - Disclaimer

ORBIFLY MET'MAP TEAM :

Programmation & Développement : Alexandra Zaïnal
Sur une idée originale de : Baudouin d'Aumeries
Assistance à la programmation : Marc-Olivier Méhu
Soutien technique & logistique : Manuel Goepfert

Contact : metmap@orbifly.com




SOURCES & CREDITS :

   NOAA